sensor_id;sensor_type;location;lat;lon;timestamp;pressure;altitude;pressure_sealevel;temperature;humidity
12785;BME280;6456;42.680;23.260;2023-04-27T00:00:37;94296.88;;;8.25;71.76
12785;BME280;6456;42.680;23.260;2023-04-27T00:03:04;94321.28;;;8.32;71.94
12785;BME280;6456;42.680;23.260;2023-04-27T00:05:33;94284.22;;;8.09;71.74
12785;BME280;6456;42.680;23.260;2023-04-27T00:08:00;94304.13;;;8.29;71.76
12785;BME280;6456;42.680;23.260;2023-04-27T00:10:27;94323.09;;;8.31;71.72
12785;BME280;6456;42.680;23.260;2023-04-27T00:12:54;94242.56;;;7.68;72.30
12785;BME280;6456;42.680;23.260;2023-04-27T00:15:22;94341.03;;;8.41;71.72
12785;BME280;6456;42.680;23.260;2023-04-27T00:17:50;94263.91;;;7.91;71.59
12785;BME280;6456;42.680;23.260;2023-04-27T00:20:17;94246.00;;;7.68;72.47
12785;BME280;6456;42.680;23.260;2023-04-27T00:22:45;94350.09;;;8.32;72.24
12785;BME280;6456;42.680;23.260;2023-04-27T00:25:12;94286.25;;;7.94;72.38
12785;BME280;6456;42.680;23.260;2023-04-27T00:27:39;94306.00;;;7.96;72.18
12785;BME280;6456;42.680;23.260;2023-04-27T00:30:07;94361.81;;;8.36;72.65
12785;BME280;6456;42.680;23.260;2023-04-27T00:32:34;94285.66;;;7.85;72.26
12785;BME280;6456;42.680;23.260;2023-04-27T00:35:03;94302.97;;;7.93;72.11
12785;BME280;6456;42.680;23.260;2023-04-27T00:37:30;94289.28;;;7.91;71.92
12785;BME280;6456;42.680;23.260;2023-04-27T00:39:57;94262.13;;;7.65;72.22
12785;BME280;6456;42.680;23.260;2023-04-27T00:42:24;94359.56;;;8.20;73.00
12785;BME280;6456;42.680;23.260;2023-04-27T00:44:50;94335.00;;;8.08;72.70
12785;BME280;6456;42.680;23.260;2023-04-27T00:47:18;94297.75;;;7.80;72.58
12785;BME280;6456;42.680;23.260;2023-04-27T00:49:45;94368.88;;;8.16;72.92
12785;BME280;6456;42.680;23.260;2023-04-27T00:52:13;94326.38;;;7.81;73.10
12785;BME280;6456;42.680;23.260;2023-04-27T00:54:40;94299.16;;;7.62;73.23
12785;BME280;6456;42.680;23.260;2023-04-27T00:57:07;94352.34;;;7.83;73.38
12785;BME280;6456;42.680;23.260;2023-04-27T00:59:34;94275.00;;;7.28;73.92
12785;BME280;6456;42.680;23.260;2023-04-27T01:02:01;94276.81;;;7.27;74.81
12785;BME280;6456;42.680;23.260;2023-04-27T01:04:28;94329.78;;;7.62;73.58
12785;BME280;6456;42.680;23.260;2023-04-27T01:06:56;94248.41;;;6.98;74.81
12785;BME280;6456;42.680;23.260;2023-04-27T01:09:24;94370.47;;;7.78;74.50
12785;BME280;6456;42.680;23.260;2023-04-27T01:11:51;94356.00;;;7.68;74.67
12785;BME280;6456;42.680;23.260;2023-04-27T01:14:18;94415.22;;;7.96;74.60
12785;BME280;6456;42.680;23.260;2023-04-27T01:16:46;94352.75;;;7.53;74.81
12785;BME280;6456;42.680;23.260;2023-04-27T01:19:13;94320.13;;;7.36;75.35
12785;BME280;6456;42.680;23.260;2023-04-27T01:21:40;94351.53;;;7.49;75.14
12785;BME280;6456;42.680;23.260;2023-04-27T01:24:09;94334.00;;;7.37;75.47
12785;BME280;6456;42.680;23.260;2023-04-27T01:26:36;94417.84;;;7.83;75.35
12785;BME280;6456;42.680;23.260;2023-04-27T01:29:03;94298.53;;;7.15;75.22
12785;BME280;6456;42.680;23.260;2023-04-27T01:31:30;94307.81;;;7.17;74.86
12785;BME280;6456;42.680;23.260;2023-04-27T01:33:57;94333.78;;;7.25;74.59
12785;BME280;6456;42.680;23.260;2023-04-27T01:36:27;94398.69;;;7.69;75.02
12785;BME280;6456;42.680;23.260;2023-04-27T01:38:54;94295.50;;;6.98;74.38
12785;BME280;6456;42.680;23.260;2023-04-27T01:41:22;94371.47;;;7.44;74.75
12785;BME280;6456;42.680;23.260;2023-04-27T01:43:49;94385.78;;;7.54;74.45
12785;BME280;6456;42.680;23.260;2023-04-27T01:46:16;94425.69;;;7.76;74.89
12785;BME280;6456;42.680;23.260;2023-04-27T01:48:43;94360.78;;;7.32;74.73
12785;BME280;6456;42.680;23.260;2023-04-27T01:51:10;94350.69;;;7.23;74.42
12785;BME280;6456;42.680;23.260;2023-04-27T01:53:37;94274.13;;;6.75;74.36
12785;BME280;6456;42.680;23.260;2023-04-27T01:56:05;94388.19;;;7.43;74.83
12785;BME280;6456;42.680;23.260;2023-04-27T01:58:33;94289.41;;;6.78;74.77
12785;BME280;6456;42.680;23.260;2023-04-27T02:01:00;94398.44;;;7.44;75.01
12785;BME280;6456;42.680;23.260;2023-04-27T02:03:28;94420.84;;;7.66;74.35
12785;BME280;6456;42.680;23.260;2023-04-27T02:05:55;94432.75;;;7.69;73.87
12785;BME280;6456;42.680;23.260;2023-04-27T02:08:22;94316.25;;;7.06;74.15
12785;BME280;6456;42.680;23.260;2023-04-27T02:10:49;94307.34;;;6.94;73.75
12785;BME280;6456;42.680;23.260;2023-04-27T02:13:16;94415.63;;;7.73;73.53
12785;BME280;6456;42.680;23.260;2023-04-27T02:15:44;94332.53;;;7.08;73.77
12785;BME280;6456;42.680;23.260;2023-04-27T02:18:11;94402.09;;;7.63;73.76
12785;BME280;6456;42.680;23.260;2023-04-27T02:20:38;94298.50;;;6.95;73.39
12785;BME280;6456;42.680;23.260;2023-04-27T02:23:06;94371.66;;;7.42;72.89
12785;BME280;6456;42.680;23.260;2023-04-27T02:25:35;94433.53;;;7.69;73.11
12785;BME280;6456;42.680;23.260;2023-04-27T02:28:09;94353.50;;;7.34;73.85
12785;BME280;6456;42.680;23.260;2023-04-27T02:30:36;94262.06;;;6.80;73.01
12785;BME280;6456;42.680;23.260;2023-04-27T02:33:04;94404.13;;;7.67;72.48
12785;BME280;6456;42.680;23.260;2023-04-27T02:35:31;94418.03;;;7.68;72.37
12785;BME280;6456;42.680;23.260;2023-04-27T02:37:58;94410.75;;;7.76;72.34
12785;BME280;6456;42.680;23.260;2023-04-27T02:40:25;94408.16;;;7.63;71.71
12785;BME280;6456;42.680;23.260;2023-04-27T02:42:52;94423.47;;;7.80;72.33
12785;BME280;6456;42.680;23.260;2023-04-27T02:45:19;94322.50;;;7.18;71.79
12785;BME280;6456;42.680;23.260;2023-04-27T02:47:46;94347.84;;;7.24;72.31
12785;BME280;6456;42.680;23.260;2023-04-27T02:50:14;94382.75;;;7.57;71.80
12785;BME280;6456;42.680;23.260;2023-04-27T02:52:41;94352.53;;;7.29;72.32
12785;BME280;6456;42.680;23.260;2023-04-27T02:55:08;94321.47;;;7.06;71.89
12785;BME280;6456;42.680;23.260;2023-04-27T02:57:36;94437.78;;;7.77;71.97
12785;BME280;6456;42.680;23.260;2023-04-27T03:00:03;94383.75;;;7.43;72.18
12785;BME280;6456;42.680;23.260;2023-04-27T03:02:31;94306.34;;;6.88;72.17
12785;BME280;6456;42.680;23.260;2023-04-27T03:04:58;94324.44;;;6.90;72.12
12785;BME280;6456;42.680;23.260;2023-04-27T03:07:27;94448.66;;;7.74;70.92
12785;BME280;6456;42.680;23.260;2023-04-27T03:09:56;94401.63;;;7.27;72.19
12785;BME280;6456;42.680;23.260;2023-04-27T03:12:22;94454.25;;;7.58;72.46
12785;BME280;6456;42.680;23.260;2023-04-27T03:14:49;94397.16;;;7.14;72.97
12785;BME280;6456;42.680;23.260;2023-04-27T03:17:16;94326.84;;;6.85;72.46
12785;BME280;6456;42.680;23.260;2023-04-27T03:19:46;94413.50;;;7.29;72.57
12785;BME280;6456;42.680;23.260;2023-04-27T03:22:13;94286.31;;;6.55;72.76
12785;BME280;6456;42.680;23.260;2023-04-27T03:24:41;94451.84;;;7.63;73.31
12785;BME280;6456;42.680;23.260;2023-04-27T03:27:08;94361.06;;;6.96;72.49
12785;BME280;6456;42.680;23.260;2023-04-27T03:29:35;94458.91;;;7.62;72.89
12785;BME280;6456;42.680;23.260;2023-04-27T03:32:02;94441.72;;;7.47;72.13
12785;BME280;6456;42.680;23.260;2023-04-27T03:34:30;94399.19;;;7.19;72.67
12785;BME280;6456;42.680;23.260;2023-04-27T03:36:58;94468.78;;;7.60;72.93
12785;BME280;6456;42.680;23.260;2023-04-27T03:39:28;94396.09;;;7.02;72.17
12785;BME280;6456;42.680;23.260;2023-04-27T03:41:56;94478.00;;;7.43;72.97
12785;BME280;6456;42.680;23.260;2023-04-27T03:44:23;94378.31;;;6.78;72.12
12785;BME280;6456;42.680;23.260;2023-04-27T03:46:50;94466.91;;;7.41;72.02
12785;BME280;6456;42.680;23.260;2023-04-27T03:49:17;94447.06;;;7.13;72.57
12785;BME280;6456;42.680;23.260;2023-04-27T03:51:44;94479.78;;;7.36;72.53
12785;BME280;6456;42.680;23.260;2023-04-27T03:54:11;94464.41;;;7.27;72.96
12785;BME280;6456;42.680;23.260;2023-04-27T03:56:37;94487.63;;;7.36;72.66
12785;BME280;6456;42.680;23.260;2023-04-27T03:59:06;94441.59;;;7.01;72.64
12785;BME280;6456;42.680;23.260;2023-04-27T04:01:33;94491.25;;;7.35;72.10
12785;BME280;6456;42.680;23.260;2023-04-27T04:04:00;94367.34;;;6.55;71.90
12785;BME280;6456;42.680;23.260;2023-04-27T04:06:28;94458.50;;;6.98;71.11
12785;BME280;6456;42.680;23.260;2023-04-27T04:08:55;94389.72;;;6.64;72.38
12785;BME280;6456;42.680;23.260;2023-04-27T04:11:22;94435.09;;;6.90;72.88
12785;BME280;6456;42.680;23.260;2023-04-27T04:13:50;94436.31;;;6.94;72.70
12785;BME280;6456;42.680;23.260;2023-04-27T04:16:18;94488.94;;;7.13;71.64
12785;BME280;6456;42.680;23.260;2023-04-27T04:18:45;94454.00;;;6.86;71.68
12785;BME280;6456;42.680;23.260;2023-04-27T04:21:13;94352.31;;;6.22;72.66
12785;BME280;6456;42.680;23.260;2023-04-27T04:23:39;94375.91;;;6.35;72.65
12785;BME280;6456;42.680;23.260;2023-04-27T04:26:06;94422.97;;;6.76;72.41
12785;BME280;6456;42.680;23.260;2023-04-27T04:28:34;94482.72;;;7.20;72.07
12785;BME280;6456;42.680;23.260;2023-04-27T04:31:01;94515.56;;;7.29;72.38
12785;BME280;6456;42.680;23.260;2023-04-27T04:33:31;94526.09;;;7.42;72.97
12785;BME280;6456;42.680;23.260;2023-04-27T04:35:58;94487.75;;;7.22;71.60
12785;BME280;6456;42.680;23.260;2023-04-27T04:38:25;94487.97;;;7.20;70.96
12785;BME280;6456;42.680;23.260;2023-04-27T04:40:52;94519.44;;;7.33;71.87
12785;BME280;6456;42.680;23.260;2023-04-27T04:43:18;94544.41;;;7.42;70.53
12785;BME280;6456;42.680;23.260;2023-04-27T04:45:45;94538.59;;;7.47;70.86
12785;BME280;6456;42.680;23.260;2023-04-27T04:48:13;94484.69;;;7.11;72.64
12785;BME280;6456;42.680;23.260;2023-04-27T04:50:42;94510.16;;;7.37;71.31
12785;BME280;6456;42.680;23.260;2023-04-27T04:53:09;94539.84;;;7.57;70.06
12785;BME280;6456;42.680;23.260;2023-04-27T04:55:35;94554.97;;;7.62;71.16
12785;BME280;6456;42.680;23.260;2023-04-27T04:58:02;94512.41;;;7.40;71.70
12785;BME280;6456;42.680;23.260;2023-04-27T05:00:29;94553.44;;;7.74;70.61
12785;BME280;6456;42.680;23.260;2023-04-27T05:02:56;94530.84;;;7.66;70.46
12785;BME280;6456;42.680;23.260;2023-04-27T05:05:25;94547.19;;;7.82;70.20
12785;BME280;6456;42.680;23.260;2023-04-27T05:07:53;94532.06;;;7.77;71.84
12785;BME280;6456;42.680;23.260;2023-04-27T05:10:20;94561.34;;;8.00;72.70
12785;BME280;6456;42.680;23.260;2023-04-27T05:12:47;94550.69;;;8.08;71.44
12785;BME280;6456;42.680;23.260;2023-04-27T05:15:14;94564.44;;;8.23;70.29
12785;BME280;6456;42.680;23.260;2023-04-27T05:17:40;94572.16;;;8.31;69.17
12785;BME280;6456;42.680;23.260;2023-04-27T05:20:08;94549.91;;;8.21;68.45
12785;BME280;6456;42.680;23.260;2023-04-27T05:22:35;94575.56;;;8.45;69.34
12785;BME280;6456;42.680;23.260;2023-04-27T05:25:04;94566.09;;;8.57;68.60
12785;BME280;6456;42.680;23.260;2023-04-27T05:27:31;94574.75;;;8.64;70.42
12785;BME280;6456;42.680;23.260;2023-04-27T05:29:58;94489.63;;;8.01;71.55
12785;BME280;6456;42.680;23.260;2023-04-27T05:32:25;94488.00;;;8.13;69.84
12785;BME280;6456;42.680;23.260;2023-04-27T05:34:51;94586.50;;;8.68;69.98
12785;BME280;6456;42.680;23.260;2023-04-27T05:37:18;94575.78;;;8.70;70.18
12785;BME280;6456;42.680;23.260;2023-04-27T05:39:45;94507.56;;;8.24;69.68
12785;BME280;6456;42.680;23.260;2023-04-27T05:42:13;94587.50;;;8.80;71.04
12785;BME280;6456;42.680;23.260;2023-04-27T05:44:40;94593.97;;;8.71;70.52
12785;BME280;6456;42.680;23.260;2023-04-27T05:47:07;94522.03;;;8.07;68.98
12785;BME280;6456;42.680;23.260;2023-04-27T05:49:34;94588.88;;;8.37;70.10
12785;BME280;6456;42.680;23.260;2023-04-27T05:52:01;94586.66;;;8.47;70.65
12785;BME280;6456;42.680;23.260;2023-04-27T05:54:28;94569.94;;;8.42;70.78
12785;BME280;6456;42.680;23.260;2023-04-27T05:56:56;94585.88;;;8.60;70.70
12785;BME280;6456;42.680;23.260;2023-04-27T05:59:24;94586.66;;;8.67;71.08
12785;BME280;6456;42.680;23.260;2023-04-27T06:01:51;94592.75;;;8.61;71.77
12785;BME280;6456;42.680;23.260;2023-04-27T06:04:18;94583.25;;;8.66;71.83
12785;BME280;6456;42.680;23.260;2023-04-27T06:06:45;94582.25;;;8.67;70.60
12785;BME280;6456;42.680;23.260;2023-04-27T06:09:12;94589.50;;;8.78;71.51
12785;BME280;6456;42.680;23.260;2023-04-27T06:11:39;94597.56;;;8.90;70.42
12785;BME280;6456;42.680;23.260;2023-04-27T06:14:05;94587.47;;;9.00;69.60
12785;BME280;6456;42.680;23.260;2023-04-27T06:16:34;94592.53;;;9.01;69.27
12785;BME280;6456;42.680;23.260;2023-04-27T06:19:00;94495.13;;;8.39;70.19
12785;BME280;6456;42.680;23.260;2023-04-27T06:21:27;94591.72;;;9.08;70.09
12785;BME280;6456;42.680;23.260;2023-04-27T06:23:57;94574.16;;;8.95;68.78
12785;BME280;6456;42.680;23.260;2023-04-27T06:26:25;94567.09;;;8.95;68.90
12785;BME280;6456;42.680;23.260;2023-04-27T06:28:53;94566.91;;;9.03;69.57
12785;BME280;6456;42.680;23.260;2023-04-27T06:31:20;94581.03;;;9.09;69.36
12785;BME280;6456;42.680;23.260;2023-04-27T06:33:48;94592.75;;;9.07;67.13
12785;BME280;6456;42.680;23.260;2023-04-27T06:36:15;94512.84;;;8.50;68.60
12785;BME280;6456;42.680;23.260;2023-04-27T06:38:42;94578.19;;;8.97;70.10
12785;BME280;6456;42.680;23.260;2023-04-27T06:41:09;94560.66;;;8.85;69.10
12785;BME280;6456;42.680;23.260;2023-04-27T06:43:36;94508.41;;;8.51;70.94
12785;BME280;6456;42.680;23.260;2023-04-27T06:46:03;94579.22;;;8.90;69.37
12785;BME280;6456;42.680;23.260;2023-04-27T06:48:30;94571.56;;;8.88;67.07
12785;BME280;6456;42.680;23.260;2023-04-27T06:50:58;94506.81;;;8.56;67.96
12785;BME280;6456;42.680;23.260;2023-04-27T06:53:25;94578.59;;;8.94;70.06
12785;BME280;6456;42.680;23.260;2023-04-27T06:55:52;94582.66;;;9.03;68.24
12785;BME280;6456;42.680;23.260;2023-04-27T06:58:19;94614.94;;;9.11;68.56
12785;BME280;6456;42.680;23.260;2023-04-27T07:00:56;94587.50;;;9.07;67.25
12785;BME280;6456;42.680;23.260;2023-04-27T07:03:23;94576.78;;;9.08;68.02
12785;BME280;6456;42.680;23.260;2023-04-27T07:05:50;94581.00;;;9.29;67.61
12785;BME280;6456;42.680;23.260;2023-04-27T07:08:18;94579.75;;;9.38;67.39
12785;BME280;6456;42.680;23.260;2023-04-27T07:10:45;94573.69;;;9.44;66.74
12785;BME280;6456;42.680;23.260;2023-04-27T07:13:12;94520.63;;;9.16;66.02
12785;BME280;6456;42.680;23.260;2023-04-27T07:15:39;94525.25;;;9.27;66.37
12785;BME280;6456;42.680;23.260;2023-04-27T07:18:05;94519.81;;;9.15;64.99
12785;BME280;6456;42.680;23.260;2023-04-27T07:20:32;94561.13;;;9.52;68.91
12785;BME280;6456;42.680;23.260;2023-04-27T07:22:59;94575.25;;;9.58;65.13
12785;BME280;6456;42.680;23.260;2023-04-27T07:25:27;94494.53;;;9.27;68.10
12785;BME280;6456;42.680;23.260;2023-04-27T07:27:54;94462.66;;;9.17;66.36
12785;BME280;6456;42.680;23.260;2023-04-27T07:30:21;94573.44;;;10.03;66.57
12785;BME280;6456;42.680;23.260;2023-04-27T07:32:48;94572.94;;;10.25;65.99
12785;BME280;6456;42.680;23.260;2023-04-27T07:35:18;94591.13;;;10.34;64.97
12785;BME280;6456;42.680;23.260;2023-04-27T07:37:45;94571.66;;;10.35;63.87
12785;BME280;6456;42.680;23.260;2023-04-27T07:40:13;94588.41;;;10.47;62.86
12785;BME280;6456;42.680;23.260;2023-04-27T07:42:42;94495.88;;;9.87;60.75
12785;BME280;6456;42.680;23.260;2023-04-27T07:45:09;94568.28;;;10.59;62.78
12785;BME280;6456;42.680;23.260;2023-04-27T07:47:36;94491.44;;;10.25;65.15
12785;BME280;6456;42.680;23.260;2023-04-27T07:50:04;94472.59;;;10.28;63.71
12785;BME280;6456;42.680;23.260;2023-04-27T07:52:31;94575.81;;;10.80;59.67
12785;BME280;6456;42.680;23.260;2023-04-27T07:54:58;94532.72;;;10.50;60.24
12785;BME280;6456;42.680;23.260;2023-04-27T07:57:26;94494.13;;;10.19;63.27
12785;BME280;6456;42.680;23.260;2023-04-27T07:59:56;94566.66;;;10.58;61.69
12785;BME280;6456;42.680;23.260;2023-04-27T08:02:22;94482.50;;;9.95;61.61
12785;BME280;6456;42.680;23.260;2023-04-27T08:04:49;94523.97;;;10.31;63.51
12785;BME280;6456;42.680;23.260;2023-04-27T08:07:16;94567.72;;;10.50;59.99
12785;BME280;6456;42.680;23.260;2023-04-27T08:09:43;94567.41;;;10.65;61.61
12785;BME280;6456;42.680;23.260;2023-04-27T08:12:10;94566.56;;;10.71;59.84
12785;BME280;6456;42.680;23.260;2023-04-27T08:14:37;94554.31;;;10.83;62.32
12785;BME280;6456;42.680;23.260;2023-04-27T08:17:05;94439.34;;;10.09;62.55
12785;BME280;6456;42.680;23.260;2023-04-27T08:19:32;94563.50;;;10.99;65.18
12785;BME280;6456;42.680;23.260;2023-04-27T08:21:59;94492.56;;;10.61;61.35
12785;BME280;6456;42.680;23.260;2023-04-27T08:24:26;94551.34;;;10.98;63.36
12785;BME280;6456;42.680;23.260;2023-04-27T08:26:53;94546.75;;;10.93;61.18
12785;BME280;6456;42.680;23.260;2023-04-27T08:29:20;94569.00;;;11.15;58.76
12785;BME280;6456;42.680;23.260;2023-04-27T08:31:47;94474.16;;;10.61;59.35
12785;BME280;6456;42.680;23.260;2023-04-27T08:34:15;94545.25;;;11.04;57.81
12785;BME280;6456;42.680;23.260;2023-04-27T08:36:42;94548.03;;;11.09;58.09
12785;BME280;6456;42.680;23.260;2023-04-27T08:39:08;94555.06;;;10.90;59.02
12785;BME280;6456;42.680;23.260;2023-04-27T08:41:35;94461.16;;;10.16;61.32
12785;BME280;6456;42.680;23.260;2023-04-27T08:44:07;94547.66;;;10.80;59.21
12785;BME280;6456;42.680;23.260;2023-04-27T08:46:35;94559.41;;;11.03;58.66
12785;BME280;6456;42.680;23.260;2023-04-27T08:49:02;94584.06;;;11.08;56.82
12785;BME280;6456;42.680;23.260;2023-04-27T08:51:31;94567.00;;;11.17;59.98
12785;BME280;6456;42.680;23.260;2023-04-27T08:53:58;94558.38;;;11.28;57.81
12785;BME280;6456;42.680;23.260;2023-04-27T08:56:27;94509.53;;;11.08;58.50
12785;BME280;6456;42.680;23.260;2023-04-27T08:58:55;94562.31;;;11.55;59.30
12785;BME280;6456;42.680;23.260;2023-04-27T09:01:23;94561.41;;;11.68;55.82
12785;BME280;6456;42.680;23.260;2023-04-27T09:03:55;94548.72;;;11.58;55.74
12785;BME280;6456;42.680;23.260;2023-04-27T09:06:28;94560.56;;;11.68;54.88
12785;BME280;6456;42.680;23.260;2023-04-27T09:08:57;94533.19;;;11.50;56.44
12785;BME280;6456;42.680;23.260;2023-04-27T09:11:29;94553.69;;;11.67;55.99
12785;BME280;6456;42.680;23.260;2023-04-27T09:13:58;94498.06;;;11.56;58.71
12785;BME280;6456;42.680;23.260;2023-04-27T09:16:25;94536.78;;;11.92;56.15
12785;BME280;6456;42.680;23.260;2023-04-27T09:18:54;94551.63;;;12.05;57.30
12785;BME280;6456;42.680;23.260;2023-04-27T09:21:22;94475.25;;;11.69;51.23
12785;BME280;6456;42.680;23.260;2023-04-27T09:23:49;94563.31;;;12.27;53.95
12785;BME280;6456;42.680;23.260;2023-04-27T09:26:21;94536.00;;;12.33;53.66
12785;BME280;6456;42.680;23.260;2023-04-27T09:28:49;94529.75;;;12.46;52.99
12785;BME280;6456;42.680;23.260;2023-04-27T09:31:16;94545.75;;;12.62;51.79
12785;BME280;6456;42.680;23.260;2023-04-27T09:33:44;94545.75;;;12.62;54.82
12785;BME280;6456;42.680;23.260;2023-04-27T09:36:12;94537.47;;;12.70;51.54
12785;BME280;6456;42.680;23.260;2023-04-27T09:38:39;94495.81;;;12.49;51.25
12785;BME280;6456;42.680;23.260;2023-04-27T09:41:07;94538.22;;;12.77;52.91
12785;BME280;6456;42.680;23.260;2023-04-27T09:43:36;94531.88;;;12.78;54.38
12785;BME280;6456;42.680;23.260;2023-04-27T09:46:04;94469.53;;;12.54;52.70
12785;BME280;6456;42.680;23.260;2023-04-27T09:48:31;94519.03;;;13.05;48.12
12785;BME280;6456;42.680;23.260;2023-04-27T09:50:58;94524.44;;;12.99;52.56
12785;BME280;6456;42.680;23.260;2023-04-27T09:53:29;94524.53;;;13.04;52.10
12785;BME280;6456;42.680;23.260;2023-04-27T09:56:08;94525.81;;;12.90;51.13
12785;BME280;6456;42.680;23.260;2023-04-27T09:58:51;94501.69;;;12.86;48.79
12785;BME280;6456;42.680;23.260;2023-04-27T10:01:26;94493.88;;;13.03;46.80
12785;BME280;6456;42.680;23.260;2023-04-27T10:04:07;94513.44;;;13.25;50.70
12785;BME280;6456;42.680;23.260;2023-04-27T10:06:56;94482.31;;;13.27;47.71
12785;BME280;6456;42.680;23.260;2023-04-27T10:09:25;94511.88;;;13.64;44.99
12785;BME280;6456;42.680;23.260;2023-04-27T10:11:53;94462.66;;;13.34;42.93
12785;BME280;6456;42.680;23.260;2023-04-27T10:14:25;94496.69;;;13.71;42.01
12785;BME280;6456;42.680;23.260;2023-04-27T10:16:57;94507.97;;;13.66;41.51
12785;BME280;6456;42.680;23.260;2023-04-27T10:19:25;94501.44;;;13.57;41.83
12785;BME280;6456;42.680;23.260;2023-04-27T10:21:53;94508.22;;;13.53;44.00
12785;BME280;6456;42.680;23.260;2023-04-27T10:24:32;94461.84;;;12.99;43.24
12785;BME280;6456;42.680;23.260;2023-04-27T10:27:02;94444.97;;;12.88;45.28
12785;BME280;6456;42.680;23.260;2023-04-27T10:29:43;94428.91;;;12.78;45.92
12785;BME280;6456;42.680;23.260;2023-04-27T10:32:12;94512.94;;;13.51;44.66
12785;BME280;6456;42.680;23.260;2023-04-27T10:34:42;94518.94;;;13.86;43.43
12785;BME280;6456;42.680;23.260;2023-04-27T10:37:12;94488.19;;;13.69;44.72
12785;BME280;6456;42.680;23.260;2023-04-27T10:39:40;94500.22;;;13.36;48.25
12785;BME280;6456;42.680;23.260;2023-04-27T10:42:09;94501.69;;;13.44;43.63
12785;BME280;6456;42.680;23.260;2023-04-27T10:44:39;94510.75;;;13.48;43.94
12785;BME280;6456;42.680;23.260;2023-04-27T10:47:13;94505.66;;;13.70;42.22
12785;BME280;6456;42.680;23.260;2023-04-27T10:49:41;94446.16;;;13.56;39.47
12785;BME280;6456;42.680;23.260;2023-04-27T10:52:08;94496.28;;;14.19;41.68
12785;BME280;6456;42.680;23.260;2023-04-27T10:54:35;94464.78;;;13.89;39.46
12785;BME280;6456;42.680;23.260;2023-04-27T10:57:05;94472.09;;;13.70;40.97
12785;BME280;6456;42.680;23.260;2023-04-27T10:59:33;94481.78;;;13.53;41.58
12785;BME280;6456;42.680;23.260;2023-04-27T11:02:01;94512.28;;;13.84;40.51
12785;BME280;6456;42.680;23.260;2023-04-27T11:04:35;94503.84;;;13.98;41.73
12785;BME280;6456;42.680;23.260;2023-04-27T11:07:02;94473.63;;;13.94;38.61
12785;BME280;6456;42.680;23.260;2023-04-27T11:09:30;94494.69;;;14.18;39.22
12785;BME280;6456;42.680;23.260;2023-04-27T11:11:57;94440.72;;;13.90;41.21
12785;BME280;6456;42.680;23.260;2023-04-27T11:14:25;94509.25;;;14.32;39.47
12785;BME280;6456;42.680;23.260;2023-04-27T11:16:52;94479.66;;;14.06;40.83
12785;BME280;6456;42.680;23.260;2023-04-27T11:19:20;94492.59;;;14.20;40.19
12785;BME280;6456;42.680;23.260;2023-04-27T11:21:50;94483.03;;;14.19;39.66
12785;BME280;6456;42.680;23.260;2023-04-27T11:24:17;94511.44;;;14.35;41.30
12785;BME280;6456;42.680;23.260;2023-04-27T11:26:50;94523.06;;;14.22;40.43
12785;BME280;6456;42.680;23.260;2023-04-27T11:29:17;94441.00;;;13.49;39.75
12785;BME280;6456;42.680;23.260;2023-04-27T11:31:46;94466.81;;;13.59;40.25
12785;BME280;6456;42.680;23.260;2023-04-27T11:34:17;94525.00;;;13.98;40.16
12785;BME280;6456;42.680;23.260;2023-04-27T11:36:55;94447.56;;;13.46;40.30
12785;BME280;6456;42.680;23.260;2023-04-27T11:39:25;94503.66;;;14.17;42.45
12785;BME280;6456;42.680;23.260;2023-04-27T11:41:52;94501.19;;;14.27;40.77
12785;BME280;6456;42.680;23.260;2023-04-27T11:44:24;94521.09;;;14.29;41.67
12785;BME280;6456;42.680;23.260;2023-04-27T11:46:51;94517.25;;;14.08;40.73
12785;BME280;6456;42.680;23.260;2023-04-27T11:49:21;94469.81;;;13.90;42.75
12785;BME280;6456;42.680;23.260;2023-04-27T11:51:49;94479.88;;;14.33;40.86
12785;BME280;6456;42.680;23.260;2023-04-27T11:54:27;94406.03;;;13.87;38.77
12785;BME280;6456;42.680;23.260;2023-04-27T11:57:06;94478.31;;;14.21;39.96
12785;BME280;6456;42.680;23.260;2023-04-27T11:59:33;94511.53;;;14.56;40.29
12785;BME280;6456;42.680;23.260;2023-04-27T12:02:00;94506.88;;;14.47;42.98
12785;BME280;6456;42.680;23.260;2023-04-27T12:04:29;94467.16;;;14.19;39.95
12785;BME280;6456;42.680;23.260;2023-04-27T12:07:00;94422.75;;;14.21;38.57
12785;BME280;6456;42.680;23.260;2023-04-27T12:09:30;94390.38;;;13.85;39.17
12785;BME280;6456;42.680;23.260;2023-04-27T12:12:01;94513.47;;;14.61;38.70
12785;BME280;6456;42.680;23.260;2023-04-27T12:14:33;94528.06;;;14.47;40.08
12785;BME280;6456;42.680;23.260;2023-04-27T12:16:59;94460.56;;;14.04;39.62
12785;BME280;6456;42.680;23.260;2023-04-27T12:19:26;94534.22;;;14.24;38.65
12785;BME280;6456;42.680;23.260;2023-04-27T12:22:00;94498.34;;;13.88;40.04
12785;BME280;6456;42.680;23.260;2023-04-27T12:24:30;94439.22;;;13.66;41.71
12785;BME280;6456;42.680;23.260;2023-04-27T12:26:58;94491.63;;;14.26;41.08
12785;BME280;6456;42.680;23.260;2023-04-27T12:29:25;94484.41;;;14.33;42.32
12785;BME280;6456;42.680;23.260;2023-04-27T12:31:57;94531.59;;;14.52;39.76
12785;BME280;6456;42.680;23.260;2023-04-27T12:34:24;94534.78;;;14.26;42.19
12785;BME280;6456;42.680;23.260;2023-04-27T12:36:51;94497.47;;;13.71;40.10
12785;BME280;6456;42.680;23.260;2023-04-27T12:39:20;94533.41;;;13.95;38.79
12785;BME280;6456;42.680;23.260;2023-04-27T12:41:49;94527.53;;;14.05;39.90
12785;BME280;6456;42.680;23.260;2023-04-27T12:44:17;94530.06;;;14.00;39.95
12785;BME280;6456;42.680;23.260;2023-04-27T12:46:45;94450.03;;;13.65;39.08
12785;BME280;6456;42.680;23.260;2023-04-27T12:49:12;94528.69;;;14.26;39.74
12785;BME280;6456;42.680;23.260;2023-04-27T12:51:39;94518.59;;;14.23;39.04
12785;BME280;6456;42.680;23.260;2023-04-27T12:54:08;94518.09;;;14.37;38.17
12785;BME280;6456;42.680;23.260;2023-04-27T12:56:36;94529.31;;;14.44;39.24
12785;BME280;6456;42.680;23.260;2023-04-27T12:59:06;94460.47;;;13.99;41.00
12785;BME280;6456;42.680;23.260;2023-04-27T13:01:38;94529.84;;;14.30;39.82
12785;BME280;6456;42.680;23.260;2023-04-27T13:04:06;94524.81;;;14.17;39.27
12785;BME280;6456;42.680;23.260;2023-04-27T13:06:33;94486.66;;;13.84;38.66
12785;BME280;6456;42.680;23.260;2023-04-27T13:09:00;94500.16;;;13.99;40.42
12785;BME280;6456;42.680;23.260;2023-04-27T13:11:27;94521.19;;;14.06;39.71